Almena, Kansas
Current Conditions -  °F | °C
As of 4:53 AM on Sunday 21 Dec 2014 (Local Time) from KHLC Reporting Station
Haze Haze  
Wind Chill: -4°   Ceiling: 12000
Heat Index: -1°   Visibility: 6mi
Dew Point: -2°   Wind: 5mph
Humidity: 92%   Direction: 240°WSW
Pressure: 29.88"   Gusts: NA
Location:  39.89°N, 99.71°W
Report Text: KHLC 211053Z AUTO 24004KT 6SM BR BKN120 M01/M02 A2988 RMK AO2 SLP127 T10111022
Loading
Personal Weather Stations






























Interactive Weather Map New forecast layout! Learn more

10-Day Weather Forecast

Advertisements
Track Severe Weather on mobile